Time;durP1;ratioP1;P1;durP2;ratioP2;P2;SDS_P1;SDS_P2;PMS_P1;PMS_P2;Temp;Humidity;BMP_temperature;BMP_pressure;BME280_temperature;BME280_humidity;BME280_pressure;Samples;Min_cycle;Max_cycle;Signal;HPM_P1;HPM_P2
2024/02/01 00:02:10;;;;;;;4.40;2.50;;;3.40;99.90;2.90;101242.00;;;;4888853;28;121884;-67
2024/02/01 00:04:36;;;;;;;3.33;3.03;;;4.20;99.90;2.80;101231.00;;;;4887158;28;110334;-67
2024/02/01 00:07:02;;;;;;;2.93;2.53;;;3.20;99.90;2.80;101226.00;;;;4891784;28;92732;-67
2024/02/01 00:09:27;;;;;;;4.77;3.13;;;3.10;99.90;2.70;101230.00;;;;4889106;28;114992;-67
2024/02/01 00:11:53;;;;;;;6.87;2.90;;;2.90;99.90;2.70;101226.00;;;;4887814;28;122219;-67
2024/02/01 00:14:19;;;;;;;4.17;3.00;;;3.00;99.90;2.60;101215.00;;;;4890654;28;94959;-67
2024/02/01 00:16:44;;;;;;;5.00;2.67;;;3.00;99.90;2.60;101224.00;;;;4890236;28;92931;-67
2024/02/01 00:19:10;;;;;;;4.43;3.03;;;2.90;99.90;2.60;101218.00;;;;4888526;28;106348;-67
2024/02/01 00:21:36;;;;;;;5.10;2.93;;;3.50;99.90;2.60;101221.00;;;;4902617;28;121941;-67
2024/02/01 00:24:02;;;;;;;2.20;2.00;;;2.90;99.90;2.60;101204.00;;;;4891951;28;93632;-66
2024/02/01 00:26:28;;;;;;;5.00;2.87;;;2.80;99.90;2.70;101206.00;;;;4892741;28;93253;-66
2024/02/01 00:28:53;;;;;;;5.73;3.20;;;2.90;99.90;2.70;101220.00;;;;4890156;28;122639;-66
2024/02/01 00:31:19;;;;;;;7.60;3.70;;;2.80;99.90;2.70;101217.00;;;;4891547;28;121373;-66
2024/02/01 00:33:45;;;;;;;5.03;4.00;;;3.00;99.90;2.80;101208.00;;;;4887643;28;109030;-67
2024/02/01 00:36:10;;;;;;;5.17;3.40;;;3.00;99.90;2.80;101214.00;;;;4888339;28;94076;-67
2024/02/01 00:38:36;;;;;;;3.97;3.17;;;3.00;99.90;2.90;101205.00;;;;4889626;28;93418;-65
2024/02/01 00:41:04;;;;;;;2.73;2.07;;;3.10;99.90;2.90;101216.00;;;;4888937;28;93532;-66
2024/02/01 00:43:30;;;;;;;3.20;2.37;;;3.50;99.90;2.90;101216.00;;;;4890894;28;93000;-66
2024/02/01 00:45:56;;;;;;;4.83;2.20;;;3.20;99.90;2.90;101228.00;;;;4886750;28;101337;-67
2024/02/01 00:48:22;;;;;;;3.13;2.73;;;3.20;99.90;3.00;101216.00;;;;4886862;28;123113;-66
2024/02/01 00:50:47;;;;;;;3.83;2.23;;;3.50;99.90;3.00;101219.00;;;;4890374;28;95712;-65
2024/02/01 00:53:13;;;;;;;3.20;2.63;;;3.30;99.90;3.10;101205.00;;;;4887466;28;111240;-66
2024/02/01 00:55:40;;;;;;;2.50;1.93;;;3.20;99.90;3.10;101206.00;;;;4889076;28;94141;-66
2024/02/01 00:58:06;;;;;;;4.97;3.10;;;3.20;99.90;3.20;101212.00;;;;4888078;28;123520;-67
2024/02/01 01:00:32;;;;;;;3.33;2.03;;;3.30;99.90;3.20;101209.00;;;;4903343;28;121131;-66
2024/02/01 01:02:59;;;;;;;2.93;2.17;;;3.40;99.90;3.20;101215.00;;;;4889249;28;96305;-67
2024/02/01 01:05:25;;;;;;;6.30;2.40;;;3.50;99.90;3.30;101203.00;;;;4888192;28;93043;-66
2024/02/01 01:07:51;;;;;;;4.37;2.60;;;3.60;99.90;3.30;101213.00;;;;4889357;28;114092;-66
2024/02/01 01:10:16;;;;;;;4.57;2.83;;;3.50;99.90;3.30;101202.00;;;;4886287;28;116403;-66
2024/02/01 01:12:42;;;;;;;4.63;2.40;;;3.50;99.90;3.30;101201.00;;;;4893164;28;98836;-67
2024/02/01 01:15:08;;;;;;;2.50;2.17;;;3.50;99.90;3.30;101198.00;;;;4905915;28;106737;-65
2024/02/01 01:17:34;;;;;;;6.20;3.30;;;3.50;99.90;3.30;101201.00;;;;4892834;28;111399;-67
2024/02/01 01:20:02;;;;;;;3.47;3.00;;;3.70;99.90;3.40;101197.00;;;;4891247;28;121962;-67
2024/02/01 01:22:29;;;;;;;1.90;1.80;;;3.50;99.90;3.40;101203.00;;;;4907751;28;93013;-66
2024/02/01 01:24:55;;;;;;;4.50;2.10;;;3.60;99.90;3.50;101193.00;;;;4892351;28;93950;-66
2024/02/01 01:27:21;;;;;;;2.60;2.03;;;3.60;99.90;3.60;101198.00;;;;4892045;28;93114;-66
2024/02/01 01:29:47;;;;;;;2.83;2.40;;;3.80;99.90;3.70;101186.00;;;;4890490;28;93745;-67
2024/02/01 01:32:14;;;;;;;4.97;2.53;;;3.90;99.90;3.70;101186.00;;;;4894055;28;93066;-67
2024/02/01 01:34:40;;;;;;;2.30;1.53;;;3.90;99.90;3.80;101189.00;;;;4894572;28;92992;-67
2024/02/01 01:37:06;;;;;;;4.97;2.03;;;4.00;99.90;3.90;101178.00;;;;4891714;28;92920;-67
2024/02/01 01:39:31;;;;;;;2.43;2.20;;;4.00;99.90;3.90;101173.00;;;;4890529;28;122387;-66
2024/02/01 01:41:57;;;;;;;3.23;2.37;;;4.10;99.90;3.90;101172.00;;;;4890126;28;109747;-65
2024/02/01 01:44:23;;;;;;;3.77;1.93;;;4.10;99.90;3.90;101166.00;;;;4891117;28;109136;-66
2024/02/01 01:46:48;;;;;;;4.10;2.03;;;4.20;99.90;4.00;101168.00;;;;4892916;28;122165;-66
2024/02/01 01:49:17;;;;;;;4.00;1.87;;;4.20;99.90;4.00;101178.00;;;;4889782;28;93901;-66
2024/02/01 01:51:46;;;;;;;2.27;2.07;;;4.20;99.90;4.00;101166.00;;;;4890518;28;93010;-66
2024/02/01 01:54:12;;;;;;;5.37;2.07;;;5.20;99.90;4.10;101169.00;;;;4892102;28;92944;-66
2024/02/01 01:56:39;;;;;;;3.73;1.93;;;5.20;99.90;4.10;101169.00;;;;4890401;28;121966;-66
2024/02/01 01:59:06;;;;;;;1.80;1.57;;;5.30;99.90;4.20;101159.00;;;;4890606;28;122075;-66
2024/02/01 02:01:36;;;;;;;2.13;1.93;;;4.30;99.90;4.20;101161.00;;;;4893040;28;92963;-66
2024/02/01 02:04:03;;;;;;;2.13;1.93;;;4.90;99.90;4.20;101151.00;;;;4887967;28;102279;-66
2024/02/01 02:06:29;;;;;;;3.50;2.23;;;4.30;99.90;4.20;101152.00;;;;4892746;28;92693;-66
2024/02/01 02:08:54;;;;;;;3.33;1.93;;;4.30;99.90;4.20;101142.00;;;;4889327;28;93502;-68
2024/02/01 02:11:23;;;;;;;3.53;2.13;;;5.10;99.90;4.30;101128.00;;;;4890987;28;110710;-66
2024/02/01 02:13:49;;;;;;;2.03;1.80;;;4.50;99.90;4.30;101135.00;;;;4891992;28;94356;-66
2024/02/01 02:16:18;;;;;;;2.97;2.63;;;4.50;99.90;4.30;101120.00;;;;4889123;28;123044;-66
2024/02/01 02:18:44;;;;;;;2.70;1.80;;;4.50;99.90;4.30;101120.00;;;;4892674;28;94043;-66
2024/02/01 02:21:18;;;;;;;2.43;1.83;;;4.40;99.90;4.30;101125.00;;;;4891181;28;100598;-66
2024/02/01 02:23:49;;;;;;;4.67;3.00;;;4.50;99.90;4.30;101121.00;;;;4889654;28;93407;-66
2024/02/01 02:26:16;;;;;;;3.73;2.40;;;4.50;99.90;4.30;101118.00;;;;4902144;28;94002;-66
2024/02/01 02:28:42;;;;;;;1.93;1.73;;;4.50;99.90;4.40;101120.00;;;;4892080;28;94019;-66
2024/02/01 02:31:07;;;;;;;3.53;2.30;;;4.60;99.90;4.40;101128.00;;;;4904980;28;92178;-65
2024/02/01 02:33:33;;;;;;;4.23;2.63;;;5.60;99.90;4.40;101130.00;;;;4902194;28;108713;-67
2024/02/01 02:35:59;;;;;;;1.90;1.57;;;4.70;99.90;4.50;101119.00;;;;4892236;28;93403;-67
2024/02/01 02:38:25;;;;;;;1.40;1.27;;;4.70;99.90;4.50;101130.00;;;;4892101;28;122564;-65
2024/02/01 02:40:50;;;;;;;2.20;1.63;;;4.70;99.90;4.60;101133.00;;;;4892387;28;93344;-67
2024/02/01 02:43:16;;;;;;;4.23;2.07;;;4.80;99.90;4.60;101126.00;;;;4903089;28;92825;-66
2024/02/01 02:45:42;;;;;;;2.87;1.77;;;4.70;99.90;4.70;101122.00;;;;4889760;28;123137;-65
2024/02/01 02:48:09;;;;;;;2.33;2.00;;;4.80;99.90;4.80;101119.00;;;;4889801;28;120604;-66
2024/02/01 02:50:36;;;;;;;2.97;1.70;;;5.00;99.90;4.90;101113.00;;;;4891204;28;94333;-66
2024/02/01 02:53:02;;;;;;;2.80;2.37;;;5.10;99.90;5.00;101116.00;;;;4890465;28;93051;-66
2024/02/01 02:55:27;;;;;;;8.00;2.13;;;5.10;99.90;5.10;101123.00;;;;4893827;28;92980;-66
2024/02/01 02:57:53;;;;;;;3.07;1.83;;;5.20;99.90;5.10;101114.00;;;;4891635;28;122262;-66
2024/02/01 03:00:20;;;;;;;2.73;1.17;;;5.30;99.90;5.20;101118.00;;;;4891784;28;93231;-66
2024/02/01 03:02:48;;;;;;;5.30;2.33;;;5.40;99.90;5.30;101124.00;;;;4891888;28;95138;-66
2024/02/01 03:05:16;;;;;;;2.73;1.90;;;6.20;99.90;5.40;101118.00;;;;4891192;28;93920;-66
2024/02/01 03:07:43;;;;;;;3.57;2.27;;;5.90;99.90;5.50;101116.00;;;;4890604;28;93447;-66
2024/02/01 03:10:09;;;;;;;3.70;2.10;;;5.80;99.90;5.50;101105.00;;;;4890879;28;103580;-67
2024/02/01 03:12:35;;;;;;;2.20;1.90;;;5.70;99.90;5.60;101102.00;;;;4904094;28;97129;-66
2024/02/01 03:15:00;;;;;;;1.87;1.70;;;6.50;99.90;5.60;101104.00;;;;4889367;28;123043;-66
2024/02/01 03:17:26;;;;;;;1.93;1.67;;;5.90;99.90;5.70;101099.00;;;;4888941;28;120953;-66
2024/02/01 03:19:52;;;;;;;2.77;1.93;;;5.80;99.90;5.70;101104.00;;;;4891853;28;110634;-67
2024/02/01 03:22:24;;;;;;;3.77;1.93;;;6.50;99.90;5.80;101103.00;;;;4890473;28;93071;-66
2024/02/01 03:24:58;;;;;;;4.17;1.97;;;5.80;99.90;5.80;101093.00;;;;4894540;28;94114;-66
2024/02/01 03:27:24;;;;;;;4.37;1.90;;;5.90;99.90;5.80;101079.00;;;;4891650;28;94139;-66
2024/02/01 03:29:53;;;;;;;4.40;2.17;;;6.40;99.90;5.90;101075.00;;;;4891561;28;97125;-66
2024/02/01 03:32:19;;;;;;;2.50;1.80;;;6.60;99.90;5.90;101078.00;;;;4892640;28;93502;-66
2024/02/01 03:34:45;;;;;;;2.30;1.87;;;6.10;99.90;5.90;101078.00;;;;4889335;28;93891;-66
2024/02/01 03:37:14;;;;;;;1.97;1.53;;;6.10;99.90;5.90;101073.00;;;;4889754;28;122133;-66
2024/02/01 03:39:41;;;;;;;3.00;1.80;;;6.10;99.90;6.00;101080.00;;;;4891203;28;94576;-66
2024/02/01 03:42:07;;;;;;;1.93;1.77;;;6.10;99.90;6.00;101076.00;;;;4890997;28;93163;-66
2024/02/01 03:44:37;;;;;;;2.70;1.60;;;6.10;99.90;6.00;101075.00;;;;4889957;28;122896;-66
2024/02/01 03:47:09;;;;;;;2.07;1.53;;;6.10;99.90;6.00;101076.00;;;;4890616;28;93233;-66
2024/02/01 03:49:39;;;;;;;3.07;2.10;;;6.20;99.90;5.90;101080.00;;;;4890570;28;93070;-66
2024/02/01 03:52:07;;;;;;;2.60;1.47;;;6.10;99.90;5.90;101082.00;;;;4889681;28;94026;-66
2024/02/01 03:54:35;;;;;;;6.63;1.90;;;6.10;99.90;5.80;101084.00;;;;4891633;28;94175;-66
2024/02/01 03:57:00;;;;;;;3.57;2.00;;;6.20;99.90;5.70;101081.00;;;;4890065;28;92995;-66
2024/02/01 03:59:27;;;;;;;1.80;1.70;;;6.80;99.90;5.60;101084.00;;;;4890073;28;93103;-67
2024/02/01 04:01:53;;;;;;;2.87;1.70;;;5.80;99.90;5.50;101078.00;;;;4890065;28;93178;-66
2024/02/01 04:04:18;;;;;;;2.20;1.70;;;5.80;99.90;5.50;101080.00;;;;4887237;28;123348;-67
2024/02/01 04:06:46;;;;;;;2.20;2.00;;;5.10;99.90;5.40;101071.00;;;;4890295;28;122751;-67
2024/02/01 04:09:11;;;;;;;3.17;2.00;;;6.60;99.90;5.40;101082.00;;;;4889540;28;92254;-66
2024/02/01 04:11:37;;;;;;;3.23;1.80;;;5.80;99.90;5.30;101071.00;;;;4890691;28;92944;-67
2024/02/01 04:14:03;;;;;;;2.60;2.07;;;5.60;99.90;5.20;101082.00;;;;4889954;28;95598;-68
2024/02/01 04:16:29;;;;;;;5.60;2.27;;;6.40;99.90;5.20;101092.00;;;;4891357;28;94064;-70
2024/02/01 04:18:57;;;;;;;4.40;1.97;;;5.40;99.90;5.10;101078.00;;;;4886835;28;93149;-69
2024/02/01 04:21:23;;;;;;;3.23;2.20;;;5.30;99.90;5.10;101089.00;;;;4890080;28;93088;-68
2024/02/01 04:23:49;;;;;;;3.50;1.70;;;6.20;99.90;5.00;101106.00;;;;4887895;28;123773;-66
2024/02/01 04:26:16;;;;;;;5.77;2.43;;;5.30;99.90;5.00;101094.00;;;;4889020;28;113805;-65
2024/02/01 04:28:43;;;;;;;2.67;1.87;;;5.30;99.90;4.90;101102.00;;;;4889504;28;110666;-66
2024/02/01 04:31:09;;;;;;;3.30;1.73;;;5.10;99.90;4.90;101091.00;;;;4890558;28;93052;-66
2024/02/01 04:33:35;;;;;;;4.90;2.53;;;6.00;99.90;4.80;101096.00;;;;4887991;28;92775;-66
2024/02/01 04:36:01;;;;;;;4.23;2.03;;;5.00;99.90;4.80;101096.00;;;;4890522;28;121579;-65
2024/02/01 04:38:26;;;;;;;3.43;2.57;;;5.10;99.90;4.80;101103.00;;;;4889884;28;110121;-65
2024/02/01 04:40:52;;;;;;;1.63;1.53;;;5.60;99.90;4.80;101095.00;;;;4886976;28;109546;-64
2024/02/01 04:43:19;;;;;;;2.53;2.33;;;4.90;99.90;4.70;101101.00;;;;4887837;28;123275;-63
2024/02/01 04:45:45;;;;;;;4.83;2.40;;;5.00;99.90;4.70;101119.00;;;;4887461;28;93308;-65
2024/02/01 04:48:11;;;;;;;2.60;2.20;;;5.00;99.90;4.70;101110.00;;;;4891087;28;92827;-62
2024/02/01 04:50:37;;;;;;;2.73;2.30;;;4.80;99.90;4.70;101108.00;;;;4894588;28;110374;-63
2024/02/01 04:53:05;;;;;;;2.77;2.00;;;5.90;99.90;4.70;101113.00;;;;4890003;28;102292;-62
2024/02/01 04:55:31;;;;;;;2.50;2.30;;;4.80;99.90;4.70;101104.00;;;;4891850;28;106543;-62
2024/02/01 04:57:57;;;;;;;2.80;2.43;;;5.70;99.90;4.70;101104.00;;;;4891990;28;92296;-64
2024/02/01 05:00:23;;;;;;;5.23;2.80;;;4.90;99.90;4.70;101107.00;;;;4890725;28;98044;-63
2024/02/01 05:02:48;;;;;;;4.60;2.53;;;4.80;99.90;4.70;101095.00;;;;4890646;28;93914;-65
2024/02/01 05:05:16;;;;;;;4.00;2.23;;;5.50;99.90;4.70;101109.00;;;;4886623;28;122365;-64
2024/02/01 05:07:42;;;;;;;2.97;2.20;;;4.90;99.90;4.80;101088.00;;;;4892166;28;92875;-65
2024/02/01 05:10:09;;;;;;;3.63;2.40;;;4.90;99.90;4.80;101089.00;;;;4889345;28;92879;-63
2024/02/01 05:12:35;;;;;;;3.17;2.03;;;5.00;99.90;4.80;101082.00;;;;4888934;28;93564;-62
2024/02/01 05:15:03;;;;;;;4.37;2.43;;;5.90;99.90;4.80;101082.00;;;;4889680;28;98196;-63
2024/02/01 05:17:29;;;;;;;3.50;2.23;;;5.10;99.90;4.80;101077.00;;;;4888482;28;104986;-62
2024/02/01 05:19:58;;;;;;;3.20;2.30;;;5.00;99.90;4.80;101081.00;;;;4888337;28;107768;-63
2024/02/01 05:22:26;;;;;;;2.93;2.30;;;5.40;99.90;4.80;101069.00;;;;4888325;28;92273;-64
2024/02/01 05:24:51;;;;;;;5.43;2.27;;;5.00;99.90;4.80;101069.00;;;;4887570;28;93044;-64
2024/02/01 05:27:20;;;;;;;4.47;2.97;;;5.00;99.90;4.80;101066.00;;;;4890790;28;93212;-64
2024/02/01 05:29:49;;;;;;;2.90;1.87;;;5.10;99.90;4.80;101089.00;;;;4900855;28;94540;-64
2024/02/01 05:32:16;;;;;;;2.53;2.10;;;4.90;99.90;4.90;101071.00;;;;4888749;28;94058;-63
2024/02/01 05:34:42;;;;;;;4.87;3.30;;;5.00;99.90;4.90;101076.00;;;;4889142;28;112191;-64
2024/02/01 05:37:08;;;;;;;3.33;2.40;;;5.10;99.90;4.90;101077.00;;;;4884246;28;110081;-64
2024/02/01 05:39:34;;;;;;;3.13;2.53;;;5.00;99.90;4.90;101079.00;;;;4888187;28;93040;-63
2024/02/01 05:42:06;;;;;;;2.60;2.40;;;5.10;99.90;4.90;101073.00;;;;4884749;28;123327;-64
2024/02/01 05:44:33;;;;;;;9.87;2.60;;;6.10;99.90;4.90;101066.00;;;;4887825;28;93083;-64
2024/02/01 05:46:59;;;;;;;3.17;2.87;;;5.10;99.90;4.90;101071.00;;;;4888594;28;92174;-64
2024/02/01 05:49:28;;;;;;;2.30;1.90;;;5.10;99.90;4.90;101074.00;;;;4885323;28;93327;-64
2024/02/01 05:52:02;;;;;;;3.90;2.37;;;5.10;99.90;4.90;101077.00;;;;4885053;28;93798;-65
2024/02/01 05:54:28;;;;;;;3.10;2.10;;;6.00;99.90;4.90;101080.00;;;;4883510;28;111942;-63
2024/02/01 05:56:54;;;;;;;2.87;1.90;;;5.00;99.90;5.00;101083.00;;;;4885521;28;94119;-63
2024/02/01 05:59:20;;;;;;;2.87;2.30;;;5.10;99.90;5.00;101085.00;;;;4887008;28;108350;-63
2024/02/01 06:01:48;;;;;;;3.30;2.17;;;5.10;99.90;5.00;101085.00;;;;4889073;28;93069;-63
2024/02/01 06:04:15;;;;;;;2.03;1.87;;;5.80;99.90;5.00;101090.00;;;;4889262;28;94628;-63
2024/02/01 06:06:47;;;;;;;3.63;2.60;;;5.20;99.90;5.00;101093.00;;;;4889584;28;92951;-63
2024/02/01 06:09:15;;;;;;;2.57;1.80;;;5.40;99.90;5.10;101094.00;;;;4889014;28;93248;-63
2024/02/01 06:11:45;;;;;;;3.97;2.43;;;5.20;99.90;5.10;101091.00;;;;4889759;28;93240;-64
2024/02/01 06:14:15;;;;;;;3.33;1.80;;;5.20;99.90;5.10;101089.00;;;;4899090;28;93263;-64
2024/02/01 06:16:42;;;;;;;8.33;3.20;;;6.00;99.90;5.10;101081.00;;;;4888684;28;93154;-63
2024/02/01 06:19:08;;;;;;;2.30;2.00;;;5.60;99.90;5.10;101099.00;;;;4886718;28;93908;-64
2024/02/01 06:21:34;;;;;;;3.57;2.37;;;5.30;99.90;5.10;101086.00;;;;4888632;28;121949;-64
2024/02/01 06:24:00;;;;;;;4.43;2.70;;;6.10;99.90;5.20;101108.00;;;;4885651;28;122075;-63
2024/02/01 06:26:28;;;;;;;5.07;2.93;;;5.30;99.90;5.20;101095.00;;;;4886221;28;93242;-64
2024/02/01 06:29:07;;;;;;;2.60;2.10;;;5.40;99.90;5.20;101092.00;;;;4888897;28;92943;-64
2024/02/01 06:31:37;;;;;;;3.00;2.43;;;5.40;99.90;5.20;101112.00;;;;4888287;28;93098;-63
2024/02/01 06:34:17;;;;;;;4.17;2.20;;;5.50;99.90;5.30;101109.00;;;;4888215;28;92763;-63
2024/02/01 06:36:50;;;;;;;2.43;1.90;;;5.40;99.90;5.30;101116.00;;;;4889034;28;92461;-64
2024/02/01 06:39:36;;;;;;;5.13;2.30;;;6.20;99.90;5.30;101120.00;;;;4886588;28;92941;-65
2024/02/01 06:42:23;;;;;;;3.60;2.47;;;5.50;99.90;5.30;101114.00;;;;4886734;28;93322;-64
2024/02/01 06:45:05;;;;;;;4.33;2.63;;;5.50;99.90;5.40;101123.00;;;;4887300;28;94070;-64
2024/02/01 06:47:38;;;;;;;6.17;3.00;;;5.50;99.90;5.40;101122.00;;;;4887844;28;93594;-64
2024/02/01 06:50:34;;;;;;;2.43;1.80;;;6.20;99.90;5.40;101128.00;;;;4887760;28;94765;-64
2024/02/01 06:53:08;;;;;;;3.83;2.63;;;5.60;99.90;5.40;101127.00;;;;4888054;28;93035;-64
2024/02/01 06:55:43;;;;;;;2.90;2.50;;;6.40;99.90;5.50;101136.00;;;;4889184;28;94035;-64
2024/02/01 06:58:15;;;;;;;2.93;2.63;;;6.40;99.90;5.50;101124.00;;;;4884552;28;93587;-65
2024/02/01 07:00:51;;;;;;;3.53;2.83;;;5.60;99.90;5.50;101121.00;;;;4885621;28;93064;-64
2024/02/01 07:08:34;;;;;;;3.83;3.13;;;5.70;99.90;5.50;101125.00;;;;4886515;28;93280;-64
2024/02/01 07:19:12;;;;;;;4.33;3.07;;;5.80;99.90;5.60;101156.00;;;;4886912;28;92982;-65
2024/02/01 07:24:38;;;;;;;3.53;2.60;;;5.80;99.90;5.60;101142.00;;;;4885648;28;92959;-64
2024/02/01 07:57:43;;;;;;;5.27;3.07;;;6.80;99.90;5.90;101179.00;;;;4886127;28;92537;-64
2024/02/01 08:00:17;;;;;;;5.57;3.30;;;6.10;99.90;5.90;101191.00;;;;4887865;28;94364;-64
2024/02/01 08:02:50;;;;;;;5.90;3.73;;;6.10;99.90;5.90;101187.00;;;;4884587;28;92873;-64
2024/02/01 08:08:06;;;;;;;4.47;3.37;;;6.10;99.90;6.00;101193.00;;;;4886208;28;94408;-64
2024/02/01 08:10:31;;;;;;;3.90;3.20;;;6.00;99.90;6.00;101195.00;;;;4887496;28;93546;-64
2024/02/01 08:13:07;;;;;;;3.97;2.90;;;6.60;99.90;6.00;101197.00;;;;4886139;28;110975;-63
2024/02/01 08:15:37;;;;;;;5.03;3.03;;;6.20;99.90;6.00;101204.00;;;;4886165;28;93112;-64
2024/02/01 08:18:08;;;;;;;3.13;2.57;;;6.90;99.90;6.00;101205.00;;;;4883314;28;94312;-64
2024/02/01 08:20:40;;;;;;;3.70;2.97;;;6.20;99.90;6.10;101217.00;;;;4885465;28;93668;-65
2024/02/01 08:23:13;;;;;;;11.37;3.40;;;6.30;99.90;6.10;101220.00;;;;4887117;28;92652;-64
2024/02/01 08:25:42;;;;;;;5.73;3.03;;;6.30;99.90;6.10;101208.00;;;;4888919;28;94306;-65
2024/02/01 08:28:09;;;;;;;4.07;3.03;;;6.40;99.90;6.10;101224.00;;;;4885198;28;94260;-65
2024/02/01 08:30:35;;;;;;;5.70;3.60;;;6.30;99.90;6.20;101225.00;;;;4887105;28;93730;-64
2024/02/01 08:33:04;;;;;;;5.13;3.33;;;6.30;99.90;6.20;101233.00;;;;4884762;28;93304;-64
2024/02/01 08:35:34;;;;;;;5.27;3.63;;;6.50;99.90;6.20;101241.00;;;;4888086;28;93133;-65
2024/02/01 08:38:06;;;;;;;3.37;2.80;;;6.40;99.90;6.20;101234.00;;;;4886287;28;93276;-65
2024/02/01 08:40:33;;;;;;;4.57;3.43;;;6.40;99.90;6.20;101248.00;;;;4884440;28;93931;-64
2024/02/01 08:42:59;;;;;;;4.77;3.40;;;6.40;99.90;6.20;101248.00;;;;4885781;28;93187;-65
2024/02/01 08:45:29;;;;;;;6.43;3.07;;;6.40;99.90;6.30;101250.00;;;;4886746;28;92984;-65
2024/02/01 08:48:02;;;;;;;4.77;3.27;;;6.50;99.90;6.30;101254.00;;;;4889689;28;93045;-65
2024/02/01 08:50:35;;;;;;;3.03;2.83;;;6.50;99.90;6.30;101260.00;;;;4885537;28;93287;-65
2024/02/01 08:53:00;;;;;;;3.37;3.00;;;7.10;99.90;6.30;101269.00;;;;4885473;28;93084;-64
2024/02/01 08:55:27;;;;;;;5.17;2.60;;;6.50;99.90;6.30;101270.00;;;;4886216;28;94146;-64
2024/02/01 08:57:54;;;;;;;4.13;3.07;;;6.50;99.90;6.40;101267.00;;;;4885132;28;93486;-64
2024/02/01 09:00:29;;;;;;;3.17;2.63;;;7.20;99.90;6.40;101278.00;;;;4884362;28;93369;-65
2024/02/01 09:03:11;;;;;;;4.70;3.17;;;6.60;99.90;6.40;101278.00;;;;4887531;28;93736;-65
2024/02/01 09:05:37;;;;;;;4.20;3.47;;;7.00;99.90;6.40;101272.00;;;;4889357;28;92967;-65
2024/02/01 09:08:06;;;;;;;6.20;4.00;;;6.80;99.90;6.50;101282.00;;;;4885624;28;93215;-65
2024/02/01 09:10:33;;;;;;;4.33;3.20;;;6.60;99.90;6.50;101290.00;;;;4885995;28;93103;-66
2024/02/01 09:12:58;;;;;;;3.07;2.77;;;6.60;99.90;6.50;101293.00;;;;4885716;28;92223;-65
2024/02/01 09:15:25;;;;;;;3.60;2.13;;;6.70;99.90;6.50;101278.00;;;;4884540;28;92928;-65
2024/02/01 09:17:51;;;;;;;3.10;2.77;;;6.70;99.90;6.60;101292.00;;;;4885788;28;93463;-65
2024/02/01 09:20:23;;;;;;;6.03;3.00;;;6.70;99.90;6.60;101291.00;;;;4885127;28;94112;-65
2024/02/01 09:22:52;;;;;;;2.63;2.13;;;7.40;99.90;6.60;101305.00;;;;4886168;28;92778;-65
2024/02/01 09:25:20;;;;;;;5.70;2.70;;;6.50;99.90;6.60;101296.00;;;;4884001;28;100321;-65
2024/02/01 09:27:48;;;;;;;4.03;2.70;;;6.80;99.90;6.60;101299.00;;;;4884876;28;93128;-65
2024/02/01 09:30:17;;;;;;;4.37;2.57;;;6.90;99.90;6.60;101297.00;;;;4884314;28;94049;-64
2024/02/01 09:32:44;;;;;;;3.67;2.80;;;6.80;99.90;6.70;101299.00;;;;4887446;28;92935;-65
2024/02/01 09:35:10;;;;;;;2.53;1.80;;;6.80;99.90;6.70;101306.00;;;;4890784;28;93387;-66
2024/02/01 09:37:36;;;;;;;5.50;2.73;;;6.80;99.90;6.70;101298.00;;;;4901945;28;92521;-64
2024/02/01 09:40:03;;;;;;;2.73;2.20;;;6.90;99.90;6.70;101314.00;;;;4889572;28;117762;-66
2024/02/01 09:42:28;;;;;;;2.93;1.90;;;6.80;99.90;6.70;101312.00;;;;4888021;28;93193;-65
2024/02/01 09:44:57;;;;;;;2.77;2.17;;;6.90;99.90;6.80;101305.00;;;;4890446;28;108248;-65
2024/02/01 09:47:27;;;;;;;3.80;2.77;;;6.90;99.90;6.80;101303.00;;;;4889775;28;93771;-65
2024/02/01 09:49:59;;;;;;;4.20;2.37;;;6.90;99.90;6.80;101300.00;;;;4889937;28;93754;-66
2024/02/01 09:52:24;;;;;;;3.73;2.33;;;7.00;99.90;6.80;101311.00;;;;4886570;28;111305;-66
2024/02/01 09:54:50;;;;;;;3.93;2.00;;;7.00;99.90;6.90;101316.00;;;;4889825;28;110040;-66
2024/02/01 09:57:17;;;;;;;4.73;2.60;;;7.00;99.90;6.90;101319.00;;;;4888021;28;122303;-67
2024/02/01 09:59:43;;;;;;;4.07;2.20;;;7.10;99.90;7.00;101308.00;;;;4887679;28;92873;-67
2024/02/01 10:02:11;;;;;;;4.57;2.90;;;7.10;99.90;7.30;101312.00;;;;4888177;28;92079;-66
2024/02/01 10:04:36;;;;;;;3.70;2.60;;;7.50;99.90;7.40;101304.00;;;;4888758;28;92963;-66
2024/02/01 10:07:03;;;;;;;6.53;3.20;;;7.50;99.90;7.50;101295.00;;;;4885904;28;123850;-67
2024/02/01 10:09:29;;;;;;;2.73;2.30;;;7.60;99.90;7.70;101280.00;;;;4886126;28;93909;-66
2024/02/01 10:11:55;;;;;;;6.10;3.07;;;7.70;99.90;7.90;101291.00;;;;4886984;28;94228;-67
2024/02/01 10:14:34;;;;;;;4.83;3.27;;;7.90;99.90;8.30;101294.00;;;;4889157;28;93477;-68
2024/02/01 10:17:08;;;;;;;4.77;3.20;;;8.20;99.90;8.60;101299.00;;;;4899404;28;93243;-66
2024/02/01 10:19:37;;;;;;;4.47;2.73;;;8.60;99.90;9.00;101305.00;;;;4888225;28;94054;-67
2024/02/01 10:22:10;;;;;;;4.60;2.93;;;9.00;99.90;9.10;101301.00;;;;4886653;28;93083;-66
2024/02/01 10:24:47;;;;;;;2.90;2.03;;;9.20;99.90;9.10;101295.00;;;;4887943;28;93115;-68
2024/02/01 10:27:13;;;;;;;3.50;2.67;;;9.20;99.90;9.10;101309.00;;;;4888186;28;93203;-67
2024/02/01 10:29:44;;;;;;;5.00;2.67;;;9.30;99.90;8.90;101306.00;;;;4886630;28;93361;-67
2024/02/01 10:32:16;;;;;;;3.27;2.30;;;9.20;99.90;8.80;101308.00;;;;4887537;28;93260;-66
2024/02/01 10:34:53;;;;;;;6.10;2.50;;;9.10;99.90;8.80;101302.00;;;;4887128;28;94239;-66
2024/02/01 10:37:21;;;;;;;2.77;2.00;;;8.90;99.90;8.70;101289.00;;;;4887722;28;94288;-66
2024/02/01 10:40:07;;;;;;;3.37;2.23;;;9.00;99.90;8.60;101297.00;;;;4887907;28;93327;-65
2024/02/01 10:42:35;;;;;;;1.73;1.50;;;8.80;99.90;8.60;101301.00;;;;4885111;28;93351;-65
2024/02/01 10:45:06;;;;;;;2.40;1.57;;;8.80;99.90;8.40;101291.00;;;;4899981;28;92895;-65
2024/02/01 10:47:42;;;;;;;1.77;1.57;;;8.70;99.90;8.40;101295.00;;;;4902961;28;93878;-64
2024/02/01 10:50:09;;;;;;;4.43;1.67;;;8.60;99.90;8.40;101288.00;;;;4879585;28;94055;-63
2024/02/01 10:52:36;;;;;;;4.50;1.70;;;8.50;99.90;8.70;101287.00;;;;4886893;28;92377;-64
2024/02/01 10:55:09;;;;;;;2.53;1.97;;;8.80;99.90;8.90;101286.00;;;;4889809;28;92988;-64
2024/02/01 10:57:37;;;;;;;2.77;1.60;;;9.20;99.90;9.10;101281.00;;;;4886452;28;93341;-63
2024/02/01 11:00:03;;;;;;;2.40;1.47;;;9.10;99.90;9.30;101287.00;;;;4888182;28;93941;-63
2024/02/01 11:02:30;;;;;;;1.93;1.23;;;9.30;99.90;9.40;101286.00;;;;4884627;28;97940;-65
2024/02/01 11:04:55;;;;;;;1.43;1.27;;;9.50;99.90;9.40;101289.00;;;;4900897;28;107693;-65
2024/02/01 11:07:25;;;;;;;3.30;1.93;;;9.60;99.90;9.50;101291.00;;;;4881958;28;93071;-64
2024/02/01 11:09:52;;;;;;;1.90;1.40;;;9.50;99.90;9.50;101292.00;;;;4887251;28;93967;-63
2024/02/01 11:12:25;;;;;;;1.80;1.00;;;9.60;99.90;9.70;101296.00;;;;4886520;28;93015;-64
2024/02/01 11:14:51;;;;;;;2.77;1.67;;;9.80;99.90;9.90;101296.00;;;;4885599;28;107805;-64
2024/02/01 11:17:20;;;;;;;1.73;1.63;;;9.90;99.90;10.10;101288.00;;;;4900499;28;92907;-65
2024/02/01 11:19:50;;;;;;;6.47;1.40;;;10.20;99.90;10.10;101298.00;;;;4885990;28;93157;-65
2024/02/01 11:22:18;;;;;;;1.67;1.33;;;10.20;99.90;10.20;101311.00;;;;4888208;28;93111;-66
2024/02/01 11:24:44;;;;;;;1.03;1.00;;;10.30;99.90;10.30;101306.00;;;;4885472;28;94110;-65
2024/02/01 11:27:24;;;;;;;1.33;1.20;;;10.40;99.90;10.50;101305.00;;;;4885107;28;96172;-65
2024/02/01 11:29:56;;;;;;;1.10;0.93;;;10.50;99.90;10.70;101295.00;;;;4886462;28;93166;-65
2024/02/01 11:32:23;;;;;;;5.93;1.57;;;10.70;99.90;11.00;101309.00;;;;4887928;28;93155;-65
2024/02/01 11:34:52;;;;;;;2.37;1.00;;;11.00;99.90;11.20;101313.00;;;;4886105;28;93010;-66
2024/02/01 11:37:24;;;;;;;1.97;1.27;;;11.20;99.90;11.50;101300.00;;;;4885109;28;93876;-65
2024/02/01 11:39:52;;;;;;;1.90;1.03;;;11.50;99.90;11.70;101310.00;;;;4884872;28;122717;-66
2024/02/01 11:42:21;;;;;;;0.70;0.70;;;11.60;99.90;11.70;101302.00;;;;4887529;28;92293;-65
2024/02/01 11:44:50;;;;;;;2.40;1.10;;;11.70;99.90;11.80;101318.00;;;;4890488;28;93092;-65
2024/02/01 11:47:16;;;;;;;5.33;1.53;;;11.80;99.90;11.60;101301.00;;;;4886369;28;122438;-66
2024/02/01 11:49:49;;;;;;;1.80;1.07;;;11.80;99.90;11.40;101304.00;;;;4884542;28;98460;-67
2024/02/01 11:52:47;;;;;;;1.33;0.90;;;11.60;99.90;11.20;101300.00;;;;4889162;28;93171;-67
2024/02/01 11:55:14;;;;;;;4.40;0.93;;;11.40;99.90;11.20;101314.00;;;;4886676;28;92901;-66